sensor_id;sensor_type;location;lat;lon;timestamp;pressure;altitude;pressure_sealevel;temperature;humidity
47761;BME280;33524;55.434;38.520;2022-10-16T00:01:46;101597.72;;;2.36;90.78
47761;BME280;33524;55.434;38.520;2022-10-16T00:04:14;101603.63;;;2.44;90.10
47761;BME280;33524;55.434;38.520;2022-10-16T00:06:42;101602.66;;;2.48;90.37
47761;BME280;33524;55.434;38.520;2022-10-16T00:09:11;101612.50;;;2.31;90.06
47761;BME280;33524;55.434;38.520;2022-10-16T00:11:42;101618.41;;;1.91;89.20
47761;BME280;33524;55.434;38.520;2022-10-16T00:14:13;101615.50;;;2.09;91.11
47761;BME280;33524;55.434;38.520;2022-10-16T00:16:42;101607.28;;;2.34;90.82
47761;BME280;33524;55.434;38.520;2022-10-16T00:19:10;101605.44;;;2.39;90.16
47761;BME280;33524;55.434;38.520;2022-10-16T00:21:39;101615.09;;;2.31;90.17
47761;BME280;33524;55.434;38.520;2022-10-16T00:24:28;101605.53;;;2.34;90.00
47761;BME280;33524;55.434;38.520;2022-10-16T00:26:55;101611.59;;;1.85;89.03
47761;BME280;33524;55.434;38.520;2022-10-16T00:29:24;101618.19;;;1.52;89.82
47761;BME280;33524;55.434;38.520;2022-10-16T00:31:52;101619.19;;;1.43;91.09
47761;BME280;33524;55.434;38.520;2022-10-16T00:34:19;101619.69;;;1.65;91.79
47761;BME280;33524;55.434;38.520;2022-10-16T00:36:48;101625.22;;;1.42;91.14
47761;BME280;33524;55.434;38.520;2022-10-16T00:39:15;101614.44;;;1.12;92.33
47761;BME280;33524;55.434;38.520;2022-10-16T00:41:43;101618.69;;;1.18;93.35
47761;BME280;33524;55.434;38.520;2022-10-16T00:44:49;101603.53;;;0.87;93.98
47761;BME280;33524;55.434;38.520;2022-10-16T00:47:24;101617.03;;;1.11;94.36
47761;BME280;33524;55.434;38.520;2022-10-16T00:50:28;101627.91;;;1.36;94.49
47761;BME280;33524;55.434;38.520;2022-10-16T00:52:59;101633.94;;;1.36;94.63
47761;BME280;33524;55.434;38.520;2022-10-16T00:55:31;101626.87;;;1.48;94.02
47761;BME280;33524;55.434;38.520;2022-10-16T00:57:59;101625.47;;;1.25;93.99
47761;BME280;33524;55.434;38.520;2022-10-16T01:00:30;101621.28;;;1.16;94.56
47761;BME280;33524;55.434;38.520;2022-10-16T01:03:00;101627.25;;;1.21;94.68
47761;BME280;33524;55.434;38.520;2022-10-16T01:05:45;101632.50;;;1.17;93.94
47761;BME280;33524;55.434;38.520;2022-10-16T01:08:27;101617.94;;;1.08;93.77
47761;BME280;33524;55.434;38.520;2022-10-16T01:11:27;101629.47;;;0.83;93.81
47761;BME280;33524;55.434;38.520;2022-10-16T01:13:55;101634.63;;;0.84;94.49
47761;BME280;33524;55.434;38.520;2022-10-16T01:16:56;101636.84;;;1.15;94.69
47761;BME280;33524;55.434;38.520;2022-10-16T01:22:13;101638.06;;;0.89;95.68
47761;BME280;33524;55.434;38.520;2022-10-16T01:24:48;101642.28;;;0.95;95.20
47761;BME280;33524;55.434;38.520;2022-10-16T01:27:31;101645.75;;;0.94;94.95
47761;BME280;33524;55.434;38.520;2022-10-16T01:30:17;101647.00;;;0.62;94.51
47761;BME280;33524;55.434;38.520;2022-10-16T01:32:50;101653.47;;;0.18;96.11
47761;BME280;33524;55.434;38.520;2022-10-16T01:40:30;101658.22;;;-0.35;99.94
47761;BME280;33524;55.434;38.520;2022-10-16T01:43:05;101661.72;;;-0.42;100.00
47761;BME280;33524;55.434;38.520;2022-10-16T01:45:36;101653.94;;;-0.41;100.00
47761;BME280;33524;55.434;38.520;2022-10-16T01:48:07;101654.00;;;-0.48;100.00
47761;BME280;33524;55.434;38.520;2022-10-16T01:50:42;101665.09;;;-0.31;100.00
47761;BME280;33524;55.434;38.520;2022-10-16T01:53:12;101663.91;;;0.09;100.00
47761;BME280;33524;55.434;38.520;2022-10-16T01:55:46;101660.50;;;0.05;100.00
47761;BME280;33524;55.434;38.520;2022-10-16T01:58:15;101661.13;;;0.30;99.02
47761;BME280;33524;55.434;38.520;2022-10-16T02:00:46;101654.19;;;0.34;97.81
47761;BME280;33524;55.434;38.520;2022-10-16T02:03:18;101676.72;;;0.23;97.65
47761;BME280;33524;55.434;38.520;2022-10-16T02:06:01;101673.38;;;0.08;97.72
47761;BME280;33524;55.434;38.520;2022-10-16T02:08:29;101669.19;;;-0.02;97.43
47761;BME280;33524;55.434;38.520;2022-10-16T02:10:59;101668.41;;;-0.13;97.48
47761;BME280;33524;55.434;38.520;2022-10-16T02:13:45;101668.34;;;-0.07;97.73
47761;BME280;33524;55.434;38.520;2022-10-16T02:16:16;101678.91;;;-0.39;98.23
47761;BME280;33524;55.434;38.520;2022-10-16T02:18:44;101672.19;;;-0.67;98.98
47761;BME280;33524;55.434;38.520;2022-10-16T02:21:19;101672.97;;;-0.54;99.81
47761;BME280;33524;55.434;38.520;2022-10-16T02:24:03;101683.97;;;-0.18;99.27
47761;BME280;33524;55.434;38.520;2022-10-16T02:26:50;101685.78;;;-0.34;98.35
47761;BME280;33524;55.434;38.520;2022-10-16T02:29:22;101687.66;;;-0.61;98.02
47761;BME280;33524;55.434;38.520;2022-10-16T02:32:01;101682.50;;;-0.57;99.01
47761;BME280;33524;55.434;38.520;2022-10-16T02:34:35;101686.84;;;-0.66;98.89
47761;BME280;33524;55.434;38.520;2022-10-16T02:37:04;101693.53;;;-0.31;99.20
47761;BME280;33524;55.434;38.520;2022-10-16T02:39:33;101684.97;;;-0.42;97.74
47761;BME280;33524;55.434;38.520;2022-10-16T02:42:02;101692.47;;;-0.02;97.79
47761;BME280;33524;55.434;38.520;2022-10-16T02:44:30;101682.97;;;0.00;96.72
47761;BME280;33524;55.434;38.520;2022-10-16T02:46:58;101694.97;;;0.06;95.89
47761;BME280;33524;55.434;38.520;2022-10-16T02:49:26;101681.09;;;0.17;94.99
47761;BME280;33524;55.434;38.520;2022-10-16T02:51:54;101687.94;;;0.23;94.11
47761;BME280;33524;55.434;38.520;2022-10-16T02:54:22;101692.47;;;-0.04;95.15
47761;BME280;33524;55.434;38.520;2022-10-16T02:56:51;101702.81;;;-0.05;95.78
47761;BME280;33524;55.434;38.520;2022-10-16T02:59:22;101698.28;;;0.23;94.64
47761;BME280;33524;55.434;38.520;2022-10-16T03:01:50;101697.56;;;0.07;94.13
47761;BME280;33524;55.434;38.520;2022-10-16T03:04:18;101701.88;;;0.07;94.30
47761;BME280;33524;55.434;38.520;2022-10-16T03:06:46;101707.31;;;-0.33;94.77
47761;BME280;33524;55.434;38.520;2022-10-16T03:09:14;101702.09;;;-0.23;95.67
47761;BME280;33524;55.434;38.520;2022-10-16T03:11:42;101697.91;;;-0.42;94.96
47761;BME280;33524;55.434;38.520;2022-10-16T03:14:10;101699.44;;;-0.13;95.32
47761;BME280;33524;55.434;38.520;2022-10-16T03:16:42;101702.06;;;-0.16;94.46
47761;BME280;33524;55.434;38.520;2022-10-16T03:19:10;101708.00;;;-0.05;95.07
47761;BME280;33524;55.434;38.520;2022-10-16T03:21:41;101701.03;;;0.05;93.94
47761;BME280;33524;55.434;38.520;2022-10-16T03:24:09;101714.91;;;-0.04;93.36
47761;BME280;33524;55.434;38.520;2022-10-16T03:26:37;101710.63;;;-0.11;94.87
47761;BME280;33524;55.434;38.520;2022-10-16T03:29:05;101718.37;;;-0.13;94.78
47761;BME280;33524;55.434;38.520;2022-10-16T03:31:33;101709.00;;;-0.29;94.60
47761;BME280;33524;55.434;38.520;2022-10-16T03:34:01;101702.09;;;-0.23;94.61
47761;BME280;33524;55.434;38.520;2022-10-16T03:36:29;101713.88;;;0.17;92.92
47761;BME280;33524;55.434;38.520;2022-10-16T03:38:57;101719.94;;;0.11;92.81
47761;BME280;33524;55.434;38.520;2022-10-16T03:41:25;101721.63;;;0.12;92.62
47761;BME280;33524;55.434;38.520;2022-10-16T03:43:53;101719.94;;;0.11;92.32
47761;BME280;33524;55.434;38.520;2022-10-16T03:46:21;101719.19;;;-0.03;92.83
47761;BME280;33524;55.434;38.520;2022-10-16T03:48:49;101723.38;;;0.10;92.43
47761;BME280;33524;55.434;38.520;2022-10-16T03:51:17;101721.59;;;0.18;91.78
47761;BME280;33524;55.434;38.520;2022-10-16T03:53:45;101725.13;;;0.10;92.06
47761;BME280;33524;55.434;38.520;2022-10-16T03:56:16;101707.06;;;0.05;91.75
47761;BME280;33524;55.434;38.520;2022-10-16T03:58:44;101727.75;;;0.04;92.30
47761;BME280;33524;55.434;38.520;2022-10-16T04:01:12;101728.75;;;-0.17;92.55
47761;BME280;33524;55.434;38.520;2022-10-16T04:03:40;101723.38;;;0.12;92.16
47761;BME280;33524;55.434;38.520;2022-10-16T04:06:08;101725.91;;;0.21;91.42
47761;BME280;33524;55.434;38.520;2022-10-16T04:08:36;101736.22;;;0.26;91.30
47761;BME280;33524;55.434;38.520;2022-10-16T04:11:05;101733.56;;;0.30;91.00
47761;BME280;33524;55.434;38.520;2022-10-16T04:13:32;101731.03;;;0.27;90.91
47761;BME280;33524;55.434;38.520;2022-10-16T04:16:00;101731.00;;;0.30;91.10
47761;BME280;33524;55.434;38.520;2022-10-16T04:18:28;101727.59;;;0.20;91.14
47761;BME280;33524;55.434;38.520;2022-10-16T04:20:56;101724.97;;;0.30;91.12
47761;BME280;33524;55.434;38.520;2022-10-16T04:23:24;101727.56;;;0.30;91.21
47761;BME280;33524;55.434;38.520;2022-10-16T04:25:52;101709.44;;;0.28;90.95
47761;BME280;33524;55.434;38.520;2022-10-16T04:28:21;101738.59;;;0.50;90.45
47761;BME280;33524;55.434;38.520;2022-10-16T04:30:48;101737.69;;;0.51;90.56
47761;BME280;33524;55.434;38.520;2022-10-16T04:33:20;101735.94;;;0.58;90.33
47761;BME280;33524;55.434;38.520;2022-10-16T04:35:48;101734.19;;;0.60;90.24
47761;BME280;33524;55.434;38.520;2022-10-16T04:38:15;101730.72;;;0.61;90.25
47761;BME280;33524;55.434;38.520;2022-10-16T04:40:44;101737.56;;;0.65;90.23
47761;BME280;33524;55.434;38.520;2022-10-16T04:43:12;101740.09;;;0.73;89.98
47761;BME280;33524;55.434;38.520;2022-10-16T04:45:39;101733.12;;;0.79;89.79
47761;BME280;33524;55.434;38.520;2022-10-16T04:48:08;101736.56;;;0.80;89.90
47761;BME280;33524;55.434;38.520;2022-10-16T04:50:36;101735.66;;;0.84;89.92
47761;BME280;33524;55.434;38.520;2022-10-16T04:53:05;101743.34;;;0.93;89.71
47761;BME280;33524;55.434;38.520;2022-10-16T04:55:33;101739.84;;;0.97;89.69
47761;BME280;33524;55.434;38.520;2022-10-16T04:58:01;101738.97;;;0.97;89.85
47761;BME280;33524;55.434;38.520;2022-10-16T05:00:29;101734.59;;;1.04;89.68
47761;BME280;33524;55.434;38.520;2022-10-16T05:02:58;101737.12;;;1.08;89.64
47761;BME280;33524;55.434;38.520;2022-10-16T05:05:31;101745.66;;;1.18;89.68
47761;BME280;33524;55.434;38.520;2022-10-16T05:08:02;101740.41;;;1.23;89.66
47761;BME280;33524;55.434;38.520;2022-10-16T05:10:31;101742.03;;;1.30;89.62
47761;BME280;33524;55.434;38.520;2022-10-16T05:12:59;101742.00;;;1.33;89.66
47761;BME280;33524;55.434;38.520;2022-10-16T05:15:27;101741.94;;;1.39;89.67
47761;BME280;33524;55.434;38.520;2022-10-16T05:17:56;101722.97;;;1.34;89.70
47761;BME280;33524;55.434;38.520;2022-10-16T05:20:24;101739.22;;;1.47;89.98
47761;BME280;33524;55.434;38.520;2022-10-16T05:22:52;101748.59;;;1.57;89.79
47761;BME280;33524;55.434;38.520;2022-10-16T05:25:20;101740.72;;;1.63;89.81
47761;BME280;33524;55.434;38.520;2022-10-16T05:27:48;101738.06;;;1.69;89.68
47761;BME280;33524;55.434;38.520;2022-10-16T05:30:17;101746.56;;;1.79;89.64
47761;BME280;33524;55.434;38.520;2022-10-16T05:32:47;101751.63;;;1.88;89.62
47761;BME280;33524;55.434;38.520;2022-10-16T05:35:17;101759.34;;;1.94;89.68
47761;BME280;33524;55.434;38.520;2022-10-16T05:37:45;101753.94;;;2.07;89.41
47761;BME280;33524;55.434;38.520;2022-10-16T05:40:13;101761.53;;;2.19;89.06
47761;BME280;33524;55.434;38.520;2022-10-16T05:42:42;101757.94;;;2.28;88.83
47761;BME280;33524;55.434;38.520;2022-10-16T05:45:10;101762.97;;;2.38;88.39
47761;BME280;33524;55.434;38.520;2022-10-16T05:47:39;101755.06;;;2.46;88.18
47761;BME280;33524;55.434;38.520;2022-10-16T05:50:20;101772.97;;;2.61;87.69
47761;BME280;33524;55.434;38.520;2022-10-16T05:53:38;101773.59;;;2.73;87.56
47761;BME280;33524;55.434;38.520;2022-10-16T05:56:11;101776.81;;;2.87;87.45
47761;BME280;33524;55.434;38.520;2022-10-16T05:59:00;101780.09;;;2.98;87.78
47761;BME280;33524;55.434;38.520;2022-10-16T06:01:37;101778.91;;;3.15;87.96
47761;BME280;33524;55.434;38.520;2022-10-16T06:04:05;101777.78;;;3.28;86.56
47761;BME280;33524;55.434;38.520;2022-10-16T06:06:33;101780.94;;;3.44;86.70
47761;BME280;33524;55.434;38.520;2022-10-16T06:09:01;101777.16;;;3.59;86.49
47761;BME280;33524;55.434;38.520;2022-10-16T06:11:31;101781.94;;;3.77;85.95
47761;BME280;33524;55.434;38.520;2022-10-16T06:14:01;101771.97;;;3.96;86.09
47761;BME280;33524;55.434;38.520;2022-10-16T06:16:30;101779.19;;;4.22;85.27
47761;BME280;33524;55.434;38.520;2022-10-16T06:18:58;101771.91;;;4.37;83.96
47761;BME280;33524;55.434;38.520;2022-10-16T06:21:29;101771.56;;;4.51;83.00
47761;BME280;33524;55.434;38.520;2022-10-16T06:23:58;101774.47;;;4.73;82.51
47761;BME280;33524;55.434;38.520;2022-10-16T06:26:29;101774.12;;;4.85;82.42
47761;BME280;33524;55.434;38.520;2022-10-16T06:28:58;101776.13;;;5.08;82.45
47761;BME280;33524;55.434;38.520;2022-10-16T06:31:29;101775.47;;;5.31;83.53
47761;BME280;33524;55.434;38.520;2022-10-16T06:33:59;101768.63;;;5.58;81.28
47761;BME280;33524;55.434;38.520;2022-10-16T06:36:27;101760.97;;;5.80;79.39
47761;BME280;33524;55.434;38.520;2022-10-16T06:38:55;101770.88;;;5.99;78.77
47761;BME280;33524;55.434;38.520;2022-10-16T06:41:24;101774.31;;;6.01;79.73
47761;BME280;33524;55.434;38.520;2022-10-16T06:43:52;101773.69;;;5.91;78.19
47761;BME280;33524;55.434;38.520;2022-10-16T06:46:22;101772.63;;;6.00;79.31
47761;BME280;33524;55.434;38.520;2022-10-16T06:48:50;101782.19;;;6.28;79.02
47761;BME280;33524;55.434;38.520;2022-10-16T06:51:22;101784.62;;;6.59;77.84
47761;BME280;33524;55.434;38.520;2022-10-16T06:53:53;101778.56;;;6.83;76.58
47761;BME280;33524;55.434;38.520;2022-10-16T06:56:31;101778.53;;;6.85;76.59
47761;BME280;33524;55.434;38.520;2022-10-16T06:59:00;101781.75;;;7.17;72.94
47761;BME280;33524;55.434;38.520;2022-10-16T07:01:29;101784.62;;;6.59;75.65
47761;BME280;33524;55.434;38.520;2022-10-16T07:03:57;101792.91;;;6.72;72.13
47761;BME280;33524;55.434;38.520;2022-10-16T07:06:26;101791.16;;;6.97;69.45
47761;BME280;33524;55.434;38.520;2022-10-16T07:08:55;101791.66;;;7.32;74.82
47761;BME280;33524;55.434;38.520;2022-10-16T07:11:23;101783.59;;;7.38;67.34
47761;BME280;33524;55.434;38.520;2022-10-16T07:13:52;101789.00;;;7.57;69.91
47761;BME280;33524;55.434;38.520;2022-10-16T07:16:27;101785.53;;;7.57;65.37
47761;BME280;33524;55.434;38.520;2022-10-16T07:19:13;101790.41;;;7.66;64.29
47761;BME280;33524;55.434;38.520;2022-10-16T07:21:43;101777.16;;;7.47;65.27
47761;BME280;33524;55.434;38.520;2022-10-16T07:24:15;101782.22;;;8.19;71.77
47761;BME280;33524;55.434;38.520;2022-10-16T07:26:44;101787.56;;;8.60;71.59
47761;BME280;33524;55.434;38.520;2022-10-16T07:29:16;101785.47;;;8.68;61.78
47761;BME280;33524;55.434;38.520;2022-10-16T07:31:45;101780.28;;;8.87;64.06
47761;BME280;33524;55.434;38.520;2022-10-16T07:34:15;101779.44;;;8.87;66.79
47761;BME280;33524;55.434;38.520;2022-10-16T07:36:48;101785.22;;;9.35;59.98
47761;BME280;33524;55.434;38.520;2022-10-16T07:39:17;101778.09;;;9.18;59.57
47761;BME280;33524;55.434;38.520;2022-10-16T07:41:45;101777.75;;;9.25;68.33
47761;BME280;33524;55.434;38.520;2022-10-16T07:44:13;101782.25;;;9.80;68.38
47761;BME280;33524;55.434;38.520;2022-10-16T07:47:02;101780.50;;;9.98;61.86
47761;BME280;33524;55.434;38.520;2022-10-16T07:49:34;101783.41;;;10.11;67.11
47761;BME280;33524;55.434;38.520;2022-10-16T07:52:02;101777.53;;;9.87;57.17
47761;BME280;33524;55.434;38.520;2022-10-16T07:54:30;101778.94;;;9.94;61.45
47761;BME280;33524;55.434;38.520;2022-10-16T07:56:59;101785.25;;;9.90;57.50
47761;BME280;33524;55.434;38.520;2022-10-16T07:59:27;101779.06;;;10.10;56.16
47761;BME280;33524;55.434;38.520;2022-10-16T08:01:55;101785.47;;;10.41;59.94
47761;BME280;33524;55.434;38.520;2022-10-16T08:04:23;101786.63;;;9.61;57.43
47761;BME280;33524;55.434;38.520;2022-10-16T08:06:54;101782.72;;;10.25;57.56
47761;BME280;33524;55.434;38.520;2022-10-16T08:09:22;101784.72;;;10.74;60.60
47761;BME280;33524;55.434;38.520;2022-10-16T08:11:50;101785.47;;;10.58;53.81
47761;BME280;33524;55.434;38.520;2022-10-16T08:14:22;101785.87;;;10.14;55.00
47761;BME280;33524;55.434;38.520;2022-10-16T08:16:50;101784.25;;;11.16;54.58
47761;BME280;33524;55.434;38.520;2022-10-16T08:19:18;101789.50;;;11.00;54.49
47761;BME280;33524;55.434;38.520;2022-10-16T08:21:48;101779.19;;;11.78;63.04
47761;BME280;33524;55.434;38.520;2022-10-16T08:24:16;101776.81;;;11.89;61.17
47761;BME280;33524;55.434;38.520;2022-10-16T08:26:44;101774.25;;;11.72;53.16
47761;BME280;33524;55.434;38.520;2022-10-16T08:29:13;101772.13;;;11.95;53.05
47761;BME280;33524;55.434;38.520;2022-10-16T08:31:45;101766.00;;;12.10;59.33
47761;BME280;33524;55.434;38.520;2022-10-16T08:34:13;101768.75;;;12.39;56.14
47761;BME280;33524;55.434;38.520;2022-10-16T08:36:41;101761.94;;;12.79;48.11
47761;BME280;33524;55.434;38.520;2022-10-16T08:39:12;101759.06;;;12.84;47.03
47761;BME280;33524;55.434;38.520;2022-10-16T08:44:33;101759.06;;;12.23;48.83
47761;BME280;33524;55.434;38.520;2022-10-16T08:47:30;101737.31;;;12.64;59.55
47761;BME280;33524;55.434;38.520;2022-10-16T08:50:08;101748.37;;;13.28;48.41
47761;BME280;33524;55.434;38.520;2022-10-16T08:52:40;101752.00;;;13.27;46.45
47761;BME280;33524;55.434;38.520;2022-10-16T08:55:41;101752.81;;;13.57;45.41
47761;BME280;33524;55.434;38.520;2022-10-16T08:58:16;101751.03;;;13.00;46.59
47761;BME280;33524;55.434;38.520;2022-10-16T09:00:54;101756.31;;;13.14;46.95
47761;BME280;33524;55.434;38.520;2022-10-16T09:15:02;101753.19;;;12.93;46.91
47761;BME280;33524;55.434;38.520;2022-10-16T09:20:30;101750.28;;;11.93;46.67
47761;BME280;33524;55.434;38.520;2022-10-16T09:23:08;101758.28;;;12.67;46.05
47761;BME280;33524;55.434;38.520;2022-10-16T09:25:39;101758.56;;;13.63;43.95
47761;BME280;33524;55.434;38.520;2022-10-16T09:28:09;101753.59;;;13.16;44.35
47761;BME280;33524;55.434;38.520;2022-10-16T09:30:38;101743.09;;;13.28;53.61
47761;BME280;33524;55.434;38.520;2022-10-16T09:33:08;101750.81;;;13.75;47.94
47761;BME280;33524;55.434;38.520;2022-10-16T09:35:43;101745.25;;;13.92;43.22
47761;BME280;33524;55.434;38.520;2022-10-16T09:38:41;101748.28;;;13.59;43.28
47761;BME280;33524;55.434;38.520;2022-10-16T09:41:22;101750.38;;;12.82;45.46
47761;BME280;33524;55.434;38.520;2022-10-16T09:44:29;101745.25;;;13.65;44.85
47761;BME280;33524;55.434;38.520;2022-10-16T09:47:28;101739.53;;;14.25;42.86
47761;BME280;33524;55.434;38.520;2022-10-16T09:50:27;101745.59;;;14.80;48.02
47761;BME280;33524;55.434;38.520;2022-10-16T09:53:26;101733.00;;;14.97;48.85
47761;BME280;33524;55.434;38.520;2022-10-16T09:56:03;101742.97;;;14.53;41.51
47761;BME280;33524;55.434;38.520;2022-10-16T09:58:43;101740.91;;;15.09;39.79
47761;BME280;33524;55.434;38.520;2022-10-16T10:01:17;101738.37;;;14.95;39.41
47761;BME280;33524;55.434;38.520;2022-10-16T10:03:47;101718.31;;;14.00;40.99
47761;BME280;33524;55.434;38.520;2022-10-16T10:06:28;101738.53;;;14.01;41.45
47761;BME280;33524;55.434;38.520;2022-10-16T10:09:06;101741.25;;;13.30;43.04
47761;BME280;33524;55.434;38.520;2022-10-16T10:12:04;101724.00;;;13.66;43.43
47761;BME280;33524;55.434;38.520;2022-10-16T10:14:58;101729.47;;;14.96;49.34
47761;BME280;33524;55.434;38.520;2022-10-16T10:17:46;101737.53;;;14.82;39.69
47761;BME280;33524;55.434;38.520;2022-10-16T14:32:23;101665.78;;;10.15;62.75
47761;BME280;33524;55.434;38.520;2022-10-16T14:34:54;101662.69;;;9.72;62.46
47761;BME280;33524;55.434;38.520;2022-10-16T14:37:26;101667.37;;;9.65;64.48
47761;BME280;33524;55.434;38.520;2022-10-16T14:39:55;101671.00;;;9.62;64.30
47761;BME280;33524;55.434;38.520;2022-10-16T14:42:25;101664.84;;;9.44;64.80
47761;BME280;33524;55.434;38.520;2022-10-16T14:44:54;101671.22;;;9.20;65.53
47761;BME280;33524;55.434;38.520;2022-10-16T14:47:24;101679.75;;;8.87;65.63
47761;BME280;33524;55.434;38.520;2022-10-16T14:49:54;101677.47;;;8.98;66.73
47761;BME280;33524;55.434;38.520;2022-10-16T14:52:25;101683.00;;;8.92;66.73
47761;BME280;33524;55.434;38.520;2022-10-16T14:54:53;101687.22;;;8.76;67.82
47761;BME280;33524;55.434;38.520;2022-10-16T14:57:24;101689.75;;;8.58;68.19
47761;BME280;33524;55.434;38.520;2022-10-16T14:59:56;101690.00;;;8.73;67.73
47761;BME280;33524;55.434;38.520;2022-10-16T15:02:32;101690.69;;;8.76;67.13
47761;BME280;33524;55.434;38.520;2022-10-16T15:05:27;101687.44;;;8.51;67.90
47761;BME280;33524;55.434;38.520;2022-10-16T15:07:55;101692.59;;;8.32;67.76
47761;BME280;33524;55.434;38.520;2022-10-16T15:10:25;101694.72;;;8.01;68.17
47761;BME280;33524;55.434;38.520;2022-10-16T15:12:53;101701.34;;;8.10;68.41
47761;BME280;33524;55.434;38.520;2022-10-16T15:15:37;101678.44;;;7.51;68.38
47761;BME280;33524;55.434;38.520;2022-10-16T15:18:06;101693.53;;;7.66;69.75
47761;BME280;33524;55.434;38.520;2022-10-16T15:20:36;101696.34;;;7.83;69.02
47761;BME280;33524;55.434;38.520;2022-10-16T15:23:14;101699.59;;;7.88;68.68
47761;BME280;33524;55.434;38.520;2022-10-16T15:25:47;101689.88;;;7.92;67.94
47761;BME280;33524;55.434;38.520;2022-10-16T15:28:16;101689.03;;;7.70;68.62
47761;BME280;33524;55.434;38.520;2022-10-16T15:30:45;101688.19;;;7.69;68.14
47761;BME280;33524;55.434;38.520;2022-10-16T15:33:28;101690.13;;;7.64;68.11
47761;BME280;33524;55.434;38.520;2022-10-16T15:36:06;101688.91;;;7.51;68.79
47761;BME280;33524;55.434;38.520;2022-10-16T15:38:35;101686.19;;;7.30;69.31
47761;BME280;33524;55.434;38.520;2022-10-16T15:41:03;101688.44;;;7.17;70.02
47761;BME280;33524;55.434;38.520;2022-10-16T15:43:31;101686.03;;;7.11;69.88
47761;BME280;33524;55.434;38.520;2022-10-16T15:46:06;101689.12;;;6.99;70.15
47761;BME280;33524;55.434;38.520;2022-10-16T15:48:41;101691.59;;;7.02;70.26
47761;BME280;33524;55.434;38.520;2022-10-16T15:51:10;101693.94;;;7.10;69.96
47761;BME280;33524;55.434;38.520;2022-10-16T15:53:38;101693.31;;;7.03;69.89
47761;BME280;33524;55.434;38.520;2022-10-16T15:56:08;101691.94;;;6.93;70.60
47761;BME280;33524;55.434;38.520;2022-10-16T15:58:37;101698.34;;;6.84;70.47
47761;BME280;33524;55.434;38.520;2022-10-16T16:01:06;101686.06;;;6.86;71.00
47761;BME280;33524;55.434;38.520;2022-10-16T16:03:35;101696.06;;;6.75;71.00
47761;BME280;33524;55.434;38.520;2022-10-16T16:06:08;101692.91;;;6.65;70.52
47761;BME280;33524;55.434;38.520;2022-10-16T16:08:37;101691.66;;;6.77;70.79
47761;BME280;33524;55.434;38.520;2022-10-16T16:11:13;101696.75;;;6.55;71.02
47761;BME280;33524;55.434;38.520;2022-10-16T16:13:45;101691.44;;;6.58;70.67
47761;BME280;33524;55.434;38.520;2022-10-16T16:16:15;101691.44;;;6.58;71.06
47761;BME280;33524;55.434;38.520;2022-10-16T16:18:47;101697.34;;;6.38;70.97
47761;BME280;33524;55.434;38.520;2022-10-16T16:21:24;101689.25;;;6.45;71.34
47761;BME280;33524;55.434;38.520;2022-10-16T16:24:17;101691.31;;;6.36;71.34
47761;BME280;33524;55.434;38.520;2022-10-16T16:26:45;101680.31;;;6.26;71.92
47761;BME280;33524;55.434;38.520;2022-10-16T16:29:14;101684.72;;;5.99;72.86
47761;BME280;33524;55.434;38.520;2022-10-16T16:31:45;101692.88;;;6.16;71.67
47761;BME280;33524;55.434;38.520;2022-10-16T16:34:15;101688.69;;;6.11;71.40
47761;BME280;33524;55.434;38.520;2022-10-16T16:36:42;101690.34;;;6.13;71.74
47761;BME280;33524;55.434;38.520;2022-10-16T16:39:10;101687.13;;;6.05;71.31
47761;BME280;33524;55.434;38.520;2022-10-16T16:41:38;101685.72;;;5.93;72.05
47761;BME280;33524;55.434;38.520;2022-10-16T16:44:08;101687.44;;;5.94;71.88
47761;BME280;33524;55.434;38.520;2022-10-16T16:46:39;101693.88;;;5.84;72.39
47761;BME280;33524;55.434;38.520;2022-10-16T16:49:11;101691.41;;;5.79;72.44
47761;BME280;33524;55.434;38.520;2022-10-16T16:51:40;101686.53;;;5.69;72.96
47761;BME280;33524;55.434;38.520;2022-10-16T16:54:10;101691.00;;;5.65;72.52
47761;BME280;33524;55.434;38.520;2022-10-16T16:56:41;101696.00;;;5.43;73.37
47761;BME280;33524;55.434;38.520;2022-10-16T16:59:16;101686.84;;;5.58;72.88
47761;BME280;33524;55.434;38.520;2022-10-16T17:01:46;101681.81;;;5.52;73.08
47761;BME280;33524;55.434;38.520;2022-10-16T17:04:20;101680.38;;;5.41;73.01
47761;BME280;33524;55.434;38.520;2022-10-16T17:06:48;101686.66;;;5.36;73.25
47761;BME280;33524;55.434;38.520;2022-10-16T17:09:16;101689.47;;;5.30;73.23
47761;BME280;33524;55.434;38.520;2022-10-16T17:11:44;101692.44;;;5.17;73.26
47761;BME280;33524;55.434;38.520;2022-10-16T17:14:14;101683.75;;;5.17;73.74
47761;BME280;33524;55.434;38.520;2022-10-16T17:16:42;101689.25;;;5.06;74.64
47761;BME280;33524;55.434;38.520;2022-10-16T17:19:17;101689.78;;;5.19;73.41
47761;BME280;33524;55.434;38.520;2022-10-16T17:21:48;101694.66;;;5.00;73.43
47761;BME280;33524;55.434;38.520;2022-10-16T17:24:17;101696.09;;;4.79;72.92
47761;BME280;33524;55.434;38.520;2022-10-16T17:26:48;101688.78;;;4.60;74.76
47761;BME280;33524;55.434;38.520;2022-10-16T17:29:17;101691.88;;;4.75;75.37
47761;BME280;33524;55.434;38.520;2022-10-16T17:31:45;101690.50;;;4.61;74.41
47761;BME280;33524;55.434;38.520;2022-10-16T17:34:16;101692.47;;;4.53;75.29
47761;BME280;33524;55.434;38.520;2022-10-16T17:36:44;101688.28;;;4.46;76.01
47761;BME280;33524;55.434;38.520;2022-10-16T17:39:15;101687.09;;;4.27;76.16
47761;BME280;33524;55.434;38.520;2022-10-16T17:41:47;101696.59;;;3.92;75.46
47761;BME280;33524;55.434;38.520;2022-10-16T17:44:15;101696.47;;;3.98;77.16
47761;BME280;33524;55.434;38.520;2022-10-16T17:46:52;101694.28;;;4.15;76.94
47761;BME280;33524;55.434;38.520;2022-10-16T17:49:20;101691.84;;;4.09;76.98
47761;BME280;33524;55.434;38.520;2022-10-16T17:51:50;101691.66;;;4.17;76.88